createdAt,value
2018-02-10T00:01:42.220Z,38.57
2018-02-10T00:04:11.109Z,37.17
2018-02-10T00:06:39.968Z,36.73
2018-02-10T00:09:08.854Z,37.07
2018-02-10T00:11:37.716Z,36.00
2018-02-10T00:14:06.598Z,38.57
2018-02-10T00:16:35.456Z,36.33
2018-02-10T00:19:04.326Z,40.37
2018-02-10T00:21:33.183Z,37.13
2018-02-10T00:24:02.068Z,35.20
2018-02-10T00:26:30.918Z,38.40
2018-02-10T00:28:59.791Z,37.97
2018-02-10T00:31:28.661Z,38.20
2018-02-10T00:33:57.530Z,35.83
2018-02-10T00:36:26.396Z,35.87
2018-02-10T00:38:55.266Z,36.10
2018-02-10T00:41:24.128Z,38.83
2018-02-10T00:43:53.008Z,35.53
2018-02-10T00:46:21.877Z,37.27
2018-02-10T00:48:50.760Z,34.63
2018-02-10T00:51:19.624Z,38.00
2018-02-10T00:53:48.478Z,37.37
2018-02-10T00:56:17.347Z,36.90
2018-02-10T00:58:46.209Z,37.43
2018-02-10T01:01:15.078Z,35.23
2018-02-10T01:03:43.944Z,37.03
2018-02-10T01:06:12.818Z,36.50
2018-02-10T01:08:41.666Z,33.63
2018-02-10T01:11:10.539Z,35.17
2018-02-10T01:13:39.395Z,35.30
2018-02-10T01:16:08.268Z,35.33
2018-02-10T01:18:37.123Z,33.60
2018-02-10T01:21:06.011Z,39.37
2018-02-10T01:23:34.888Z,35.40
2018-02-10T01:26:03.758Z,36.83
2018-02-10T01:28:32.623Z,35.70
2018-02-10T01:31:01.495Z,35.43
2018-02-10T01:33:30.354Z,35.57
2018-02-10T01:35:59.240Z,36.00
2018-02-10T01:38:28.099Z,36.03
2018-02-10T01:40:56.976Z,34.13
2018-02-10T01:43:25.845Z,34.83
2018-02-10T01:45:54.754Z,35.27
2018-02-10T01:48:23.607Z,36.10
2018-02-10T01:50:52.462Z,35.97
2018-02-10T01:53:21.334Z,31.83
2018-02-10T01:55:50.227Z,36.80
2018-02-10T01:58:19.099Z,35.97
2018-02-10T02:00:47.967Z,34.93
2018-02-10T02:03:16.848Z,37.07
2018-02-10T02:05:45.706Z,34.80
2018-02-10T02:08:14.582Z,33.90
2018-02-10T02:10:43.437Z,32.90
2018-02-10T02:13:12.311Z,35.70
2018-02-10T02:15:41.166Z,33.17
2018-02-10T02:18:10.048Z,33.37
2018-02-10T02:20:38.904Z,32.70
2018-02-10T02:23:07.783Z,36.33
2018-02-10T02:25:36.646Z,34.13
2018-02-10T02:28:05.536Z,35.90
2018-02-10T02:30:34.394Z,33.53
2018-02-10T02:33:04.294Z,33.33
2018-02-10T02:35:33.142Z,32.50
2018-02-10T02:38:02.026Z,34.07
2018-02-10T02:40:30.894Z,34.67
2018-02-10T02:42:59.760Z,32.97
2018-02-10T02:45:28.631Z,33.83
2018-02-10T02:47:57.486Z,33.80
2018-02-10T02:50:26.362Z,34.27
2018-02-10T02:52:55.224Z,35.17
2018-02-10T02:55:24.104Z,33.40
2018-02-10T02:57:52.961Z,31.47
2018-02-10T03:00:21.835Z,34.57
2018-02-10T03:02:50.693Z,34.37
2018-02-10T03:05:19.574Z,35.93
2018-02-10T03:07:48.471Z,33.93
2018-02-10T03:10:17.330Z,32.33
2018-02-10T03:12:46.192Z,33.77
2018-02-10T03:15:15.062Z,33.17
2018-02-10T03:17:43.922Z,34.53
2018-02-10T03:20:12.806Z,33.90
2018-02-10T03:22:41.658Z,34.00
2018-02-10T03:25:10.557Z,31.07
2018-02-10T03:27:39.423Z,32.67
2018-02-10T03:30:08.307Z,31.70
2018-02-10T03:32:37.179Z,32.50
2018-02-10T03:35:06.034Z,34.20
2018-02-10T03:37:34.920Z,34.97
2018-02-10T03:40:03.785Z,33.10
2018-02-10T03:42:32.659Z,33.37
2018-02-10T03:45:01.515Z,33.73
2018-02-10T03:47:30.386Z,32.60
2018-02-10T03:49:59.252Z,34.13
2018-02-10T03:52:28.122Z,35.30
2018-02-10T03:54:56.975Z,33.17
2018-02-10T03:57:25.847Z,34.00
2018-02-10T03:59:54.698Z,33.93
2018-02-10T04:02:23.580Z,34.17
2018-02-10T04:04:52.456Z,34.33
2018-02-10T04:07:21.350Z,32.47
2018-02-10T04:09:50.206Z,33.07
2018-02-10T04:12:19.059Z,33.50
2018-02-10T04:14:47.925Z,35.27
2018-02-10T04:17:16.778Z,35.63
2018-02-10T04:19:45.650Z,33.93
2018-02-10T04:22:14.498Z,34.00
2018-02-10T04:24:43.378Z,32.90
2018-02-10T04:27:12.230Z,33.67
2018-02-10T04:29:41.110Z,31.27
2018-02-10T04:32:09.963Z,31.70
2018-02-10T04:34:38.856Z,33.77
2018-02-10T04:37:07.715Z,33.93
2018-02-10T04:39:36.596Z,33.43
2018-02-10T04:42:05.458Z,30.43
2018-02-10T04:44:34.330Z,31.90
2018-02-10T04:47:03.191Z,31.57
2018-02-10T04:49:32.061Z,33.37
2018-02-10T04:52:00.934Z,33.40
2018-02-10T04:54:29.810Z,31.57
2018-02-10T04:56:58.670Z,32.70
2018-02-10T04:59:27.555Z,33.07
2018-02-10T05:01:56.410Z,31.57
2018-02-10T05:04:25.290Z,32.47
2018-02-10T05:06:54.156Z,33.43
2018-02-10T05:09:23.064Z,30.97
2018-02-10T05:11:51.931Z,32.70
2018-02-10T05:14:20.791Z,30.30
2018-02-10T05:16:49.668Z,33.87
2018-02-10T05:19:18.522Z,31.50
2018-02-10T05:21:47.394Z,31.97
2018-02-10T05:24:16.246Z,31.67
2018-02-10T05:26:45.123Z,31.57
2018-02-10T05:29:13.986Z,32.57
2018-02-10T05:31:42.855Z,31.77
2018-02-10T05:34:11.718Z,32.50
2018-02-10T05:36:40.590Z,30.40
2018-02-10T05:39:09.450Z,31.50
2018-02-10T05:41:38.317Z,31.17
2018-02-10T05:44:07.178Z,30.73
2018-02-10T05:46:36.086Z,31.20
2018-02-10T05:49:04.938Z,30.43
2018-02-10T05:51:33.806Z,32.27
2018-02-10T05:54:02.674Z,30.10
2018-02-10T05:56:31.538Z,30.50
2018-02-10T05:59:00.410Z,31.00
2018-02-10T06:01:29.276Z,31.00
2018-02-10T06:03:58.147Z,31.70
2018-02-10T06:06:27.027Z,30.90
2018-02-10T06:08:55.898Z,30.93
2018-02-10T06:11:24.760Z,31.20
2018-02-10T06:13:53.632Z,31.70
2018-02-10T06:16:22.486Z,31.93
2018-02-10T06:18:51.355Z,29.47
2018-02-10T06:21:20.202Z,31.53
2018-02-10T06:23:49.066Z,28.90
2018-02-10T06:26:17.918Z,30.13
2018-02-10T06:28:46.798Z,29.00
2018-02-10T06:31:15.654Z,30.20
2018-02-10T06:33:44.652Z,30.23
2018-02-10T06:36:13.508Z,29.60
2018-02-10T06:38:42.382Z,28.63
2018-02-10T06:41:11.267Z,27.90
2018-02-10T06:43:40.126Z,29.73
2018-02-10T06:46:09.014Z,28.50
2018-02-10T06:48:37.890Z,29.13
2018-02-10T06:51:06.783Z,28.87
2018-02-10T06:53:35.651Z,29.00
2018-02-10T06:56:04.535Z,26.63
2018-02-10T06:58:33.394Z,28.33
2018-02-10T07:01:02.275Z,29.17
2018-02-10T07:03:31.139Z,29.37
2018-02-10T07:06:00.021Z,26.07
2018-02-10T07:08:28.888Z,28.83
2018-02-10T07:10:57.762Z,27.50
2018-02-10T07:13:26.622Z,27.53
2018-02-10T07:15:55.503Z,27.93
2018-02-10T07:18:24.364Z,29.13
2018-02-10T07:20:53.254Z,27.23
2018-02-10T07:23:22.125Z,29.23
2018-02-10T07:25:50.992Z,30.60
2018-02-10T07:28:19.887Z,27.93
2018-02-10T07:30:48.760Z,26.20
2018-02-10T07:33:17.635Z,27.77
2018-02-10T07:35:46.492Z,27.30
2018-02-10T07:38:15.386Z,26.70
2018-02-10T07:40:44.245Z,28.47
2018-02-10T07:43:13.118Z,25.13
2018-02-10T07:45:41.975Z,28.70
2018-02-10T07:48:11.154Z,25.67
2018-02-10T07:50:40.023Z,27.63
2018-02-10T07:53:08.895Z,27.60
2018-02-10T07:55:37.763Z,27.30
2018-02-10T07:58:06.638Z,27.40
2018-02-10T08:00:35.499Z,25.67
2018-02-10T08:03:04.399Z,25.83
2018-02-10T08:05:33.257Z,26.23
2018-02-10T08:08:02.124Z,27.70
2018-02-10T08:10:31.018Z,24.17
2018-02-10T08:12:59.878Z,27.40
2018-02-10T08:15:28.758Z,26.93
2018-02-10T08:17:57.632Z,25.13
2018-02-10T08:20:26.530Z,26.93
2018-02-10T08:22:55.406Z,25.27
2018-02-10T08:25:24.287Z,26.43
2018-02-10T08:27:53.156Z,25.50
2018-02-10T08:30:22.038Z,25.40
2018-02-10T08:32:50.891Z,23.57
2018-02-10T08:35:19.767Z,24.67
2018-02-10T08:37:48.627Z,25.33
2018-02-10T08:40:17.512Z,27.93
2018-02-10T08:42:46.379Z,23.73
2018-02-10T08:45:15.244Z,25.40
2018-02-10T08:47:44.114Z,23.70
2018-02-10T08:50:12.976Z,25.43
2018-02-10T08:52:41.859Z,24.50
2018-02-10T08:55:10.722Z,26.83
2018-02-10T08:57:39.605Z,27.47
2018-02-10T09:00:08.471Z,28.90
2018-02-10T09:02:37.342Z,28.37
2018-02-10T09:05:06.194Z,30.50
2018-02-10T09:07:35.066Z,29.27
2018-02-10T09:10:04.057Z,27.63
2018-02-10T09:12:32.940Z,28.13
2018-02-10T09:15:01.846Z,28.03
2018-02-10T09:17:30.738Z,29.70
2018-02-10T09:19:59.594Z,25.63
2018-02-10T09:22:28.466Z,25.43
2018-02-10T09:24:57.322Z,24.63
2018-02-10T09:27:26.195Z,26.60
2018-02-10T09:29:55.181Z,27.27
2018-02-10T09:32:24.058Z,25.90
2018-02-10T09:34:52.929Z,25.80
2018-02-10T09:37:21.840Z,27.00
2018-02-10T09:39:50.692Z,25.60
2018-02-10T09:42:19.551Z,25.97
2018-02-10T09:44:48.434Z,27.23
2018-02-10T09:47:17.291Z,24.10
2018-02-10T09:49:46.163Z,25.83
2018-02-10T09:52:15.026Z,24.97
2018-02-10T09:54:43.899Z,24.93
2018-02-10T09:57:12.754Z,22.97
2018-02-10T09:59:41.645Z,23.67
2018-02-10T10:02:10.498Z,25.20
2018-02-10T10:04:39.378Z,23.97
2018-02-10T10:07:08.294Z,23.63
2018-02-10T10:09:37.170Z,24.53
2018-02-10T10:12:06.030Z,24.73
2018-02-10T10:14:34.898Z,23.03
2018-02-10T10:17:03.758Z,22.67
2018-02-10T10:19:32.644Z,25.20
2018-02-10T10:22:01.506Z,24.30
2018-02-10T10:24:30.371Z,23.87
2018-02-10T10:26:59.252Z,24.27
2018-02-10T10:29:28.106Z,22.03
2018-02-10T10:31:56.981Z,24.63
2018-02-10T10:34:25.842Z,23.13
2018-02-10T10:36:54.715Z,23.60
2018-02-10T10:39:23.575Z,22.67
2018-02-10T10:41:52.454Z,23.50
2018-02-10T10:44:21.318Z,21.87
2018-02-10T10:46:50.186Z,22.50
2018-02-10T10:49:19.054Z,22.57
2018-02-10T10:51:47.932Z,21.90
2018-02-10T10:54:16.795Z,22.87
2018-02-10T10:56:45.668Z,22.27
2018-02-10T10:59:14.527Z,20.03
2018-02-10T11:01:43.409Z,22.60
2018-02-10T11:04:12.271Z,20.47
2018-02-10T11:06:41.214Z,20.60
2018-02-10T11:09:10.148Z,23.70
2018-02-10T11:11:39.020Z,20.70
2018-02-10T11:14:07.914Z,21.10
2018-02-10T11:16:36.781Z,21.27
2018-02-10T11:19:05.658Z,22.67
2018-02-10T11:21:34.511Z,20.60
2018-02-10T11:24:03.384Z,19.63
2018-02-10T11:26:32.247Z,24.17
2018-02-10T11:29:01.126Z,35.13
2018-02-10T11:31:29.995Z,37.87
2018-02-10T11:33:58.862Z,45.13
2018-02-10T11:36:27.724Z,40.03
2018-02-10T11:38:56.609Z,41.53
2018-02-10T11:41:25.463Z,39.60
2018-02-10T11:43:54.338Z,41.87
2018-02-10T11:46:23.211Z,37.93
2018-02-10T11:48:52.091Z,34.90
2018-02-10T11:51:20.942Z,38.93
2018-02-10T11:53:49.829Z,45.60
2018-02-10T11:56:18.693Z,42.63
2018-02-10T11:58:47.579Z,43.83
2018-02-10T12:01:16.480Z,44.80
2018-02-10T12:03:45.365Z,46.70
2018-02-10T12:06:14.231Z,43.17
2018-02-10T12:08:43.100Z,42.93
2018-02-10T12:11:11.983Z,36.50
2018-02-10T12:13:40.848Z,39.47
2018-02-10T12:16:09.722Z,32.40
2018-02-10T12:18:38.574Z,42.17
2018-02-10T12:21:07.460Z,42.83
2018-02-10T12:23:36.323Z,42.90
2018-02-10T12:26:05.200Z,34.80
2018-02-10T12:28:34.054Z,46.67
2018-02-10T12:31:02.930Z,41.03
2018-02-10T12:33:31.787Z,38.23
2018-02-10T12:36:00.668Z,32.77
2018-02-10T12:38:29.536Z,37.17
2018-02-10T12:40:58.414Z,42.73
2018-02-10T12:43:27.270Z,42.00
2018-02-10T12:45:56.168Z,45.50
2018-02-10T12:48:34.451Z,38.33
2018-02-10T12:51:03.451Z,47.80
2018-02-10T12:53:32.318Z,40.87
2018-02-10T12:56:01.171Z,40.63
2018-02-10T12:58:30.103Z,34.97
2018-02-10T13:00:58.975Z,31.63
2018-02-10T13:03:27.850Z,34.33
2018-02-10T13:05:56.702Z,39.07
2018-02-10T13:08:25.576Z,36.50
2018-02-10T13:10:54.446Z,37.47
2018-02-10T13:13:24.123Z,37.07
2018-02-10T13:15:52.982Z,35.37
2018-02-10T13:18:21.850Z,36.80
2018-02-10T13:20:50.719Z,40.80
2018-02-10T13:23:19.594Z,36.03
2018-02-10T13:25:48.463Z,36.27
2018-02-10T13:28:17.342Z,32.23
2018-02-10T13:30:46.206Z,36.30
2018-02-10T13:33:15.095Z,41.83
2018-02-10T13:35:43.952Z,43.93
2018-02-10T13:38:12.856Z,41.80
2018-02-10T13:40:41.716Z,39.27
2018-02-10T13:43:10.570Z,37.47
2018-02-10T13:45:39.438Z,42.80
2018-02-10T13:48:08.309Z,45.80
2018-02-10T13:50:37.200Z,38.63
2018-02-10T13:53:06.055Z,36.43
2018-02-10T13:55:34.932Z,39.17
2018-02-10T13:58:03.786Z,40.03
2018-02-10T14:00:32.666Z,36.63
2018-02-10T14:03:01.570Z,36.60
2018-02-10T14:05:30.452Z,42.43
2018-02-10T14:07:59.327Z,34.30
2018-02-10T14:10:28.203Z,39.40
2018-02-10T14:12:57.064Z,40.57
2018-02-10T14:15:25.934Z,35.17
2018-02-10T14:17:55.453Z,36.77
2018-02-10T14:20:24.322Z,38.97
2018-02-10T14:22:53.190Z,37.20
2018-02-10T14:25:22.062Z,41.87
2018-02-10T14:27:50.914Z,40.07
2018-02-10T14:30:19.790Z,39.50
2018-02-10T14:32:48.682Z,39.60
2018-02-10T14:35:17.578Z,47.87
2018-02-10T14:37:46.430Z,43.27
2018-02-10T14:40:15.312Z,39.23
2018-02-10T14:42:44.179Z,43.70
2018-02-10T14:45:13.091Z,44.03
2018-02-10T14:47:41.951Z,44.87
2018-02-10T14:50:10.843Z,40.87
2018-02-10T14:52:39.724Z,41.23
2018-02-10T14:55:08.587Z,41.30
2018-02-10T14:57:37.468Z,34.93
2018-02-10T15:00:06.335Z,28.00
2018-02-10T15:02:35.220Z,30.90
2018-02-10T15:05:04.084Z,30.30
2018-02-10T15:07:32.968Z,31.40
2018-02-10T15:10:01.827Z,32.47
2018-02-10T15:12:30.703Z,28.70
2018-02-10T15:14:59.561Z,25.27
2018-02-10T15:17:28.464Z,29.63
2018-02-10T15:19:57.326Z,22.47
2018-02-10T15:22:26.208Z,22.13
2018-02-10T15:24:55.070Z,23.07
2018-02-10T15:27:23.946Z,19.43
2018-02-10T15:29:58.706Z,20.97
2018-02-10T15:32:33.362Z,22.63
2018-02-10T15:35:02.228Z,17.23
2018-02-10T15:37:31.100Z,18.90
2018-02-10T15:39:59.978Z,21.43
2018-02-10T15:42:28.849Z,21.17
2018-02-10T15:44:57.736Z,20.93
2018-02-10T15:47:26.595Z,17.73
2018-02-10T15:49:55.474Z,16.90
2018-02-10T15:52:24.338Z,19.90
2018-02-10T15:54:53.221Z,19.73
2018-02-10T15:57:22.091Z,15.13
2018-02-10T15:59:50.958Z,16.80
2018-02-10T16:02:19.823Z,14.80
2018-02-10T16:04:48.698Z,14.93
2018-02-10T16:07:17.554Z,17.30
2018-02-10T16:09:46.426Z,15.20
2018-02-10T16:12:15.305Z,18.20
2018-02-10T16:14:44.192Z,17.40
2018-02-10T16:17:13.075Z,13.50
2018-02-10T16:19:41.926Z,14.70
2018-02-10T16:22:10.805Z,16.27
2018-02-10T16:24:39.663Z,16.80
2018-02-10T16:27:08.586Z,13.93
2018-02-10T16:29:37.452Z,17.30
2018-02-10T16:32:06.329Z,13.80
2018-02-10T16:34:35.187Z,14.40
2018-02-10T16:37:04.067Z,14.47
2018-02-10T16:39:32.939Z,16.73
2018-02-10T16:42:01.814Z,14.73
2018-02-10T16:44:30.676Z,12.50
2018-02-10T16:46:59.550Z,16.23
2018-02-10T16:49:28.408Z,14.10
2018-02-10T16:51:57.282Z,13.57
2018-02-10T16:54:26.139Z,14.27
2018-02-10T16:56:55.020Z,15.77
2018-02-10T16:59:23.879Z,15.67
2018-02-10T17:01:52.765Z,12.57
2018-02-10T17:04:21.627Z,15.30
2018-02-10T17:06:50.516Z,13.57
2018-02-10T17:09:19.374Z,12.97
2018-02-10T17:11:48.247Z,12.70
2018-02-10T17:14:17.168Z,13.13
2018-02-10T17:16:46.004Z,14.33
2018-02-10T17:19:14.891Z,13.27
2018-02-10T17:21:43.779Z,12.27
2018-02-10T17:24:12.695Z,12.97
2018-02-10T17:26:41.564Z,13.40
2018-02-10T17:29:10.438Z,14.30
2018-02-10T17:31:39.310Z,13.20
2018-02-10T17:34:08.179Z,12.80
2018-02-10T17:36:37.038Z,14.00
2018-02-10T17:39:05.915Z,13.83
2018-02-10T17:41:34.774Z,13.40
2018-02-10T17:44:03.650Z,13.20
2018-02-10T17:46:32.509Z,12.03
2018-02-10T17:49:01.387Z,11.90
2018-02-10T17:51:30.259Z,13.00
2018-02-10T17:53:59.144Z,12.50
2018-02-10T17:56:27.998Z,13.00
2018-02-10T17:58:56.981Z,13.30
2018-02-10T18:01:25.844Z,12.97
2018-02-10T18:03:54.699Z,12.83
2018-02-10T18:06:23.570Z,12.37
2018-02-10T18:08:52.423Z,13.57
2018-02-10T18:11:21.332Z,15.13
2018-02-10T18:13:50.208Z,11.87
2018-02-10T18:16:19.079Z,13.80
2018-02-10T18:18:47.934Z,13.00
2018-02-10T18:21:16.810Z,12.83
2018-02-10T18:23:45.678Z,13.47
2018-02-10T18:26:14.550Z,14.53
2018-02-10T18:28:43.421Z,13.80
2018-02-10T18:31:12.290Z,12.80
2018-02-10T18:33:41.157Z,13.37
2018-02-10T18:36:10.030Z,13.53
2018-02-10T18:38:38.903Z,15.03
2018-02-10T18:41:07.795Z,13.43
2018-02-10T18:43:36.655Z,16.70
2018-02-10T18:46:05.518Z,15.53
2018-02-10T18:48:34.398Z,13.47
2018-02-10T18:51:03.258Z,12.83
2018-02-10T18:53:32.135Z,12.37
2018-02-10T18:56:00.992Z,13.03
2018-02-10T18:58:29.878Z,13.20
2018-02-10T19:00:58.738Z,12.70
2018-02-10T19:03:27.624Z,13.13
2018-02-10T19:05:56.494Z,14.33
2018-02-10T19:08:25.378Z,12.83
2018-02-10T19:10:54.239Z,13.77
2018-02-10T19:13:23.112Z,12.93
2018-02-10T19:15:51.994Z,17.80
2018-02-10T19:18:20.888Z,13.83
2018-02-10T19:20:49.745Z,12.60
2018-02-10T19:23:18.624Z,14.33
2018-02-10T19:25:47.483Z,11.97
2018-02-10T19:28:16.353Z,13.53
2018-02-10T19:30:45.236Z,13.33
2018-02-10T19:33:14.103Z,13.10
2018-02-10T19:35:42.975Z,15.07
2018-02-10T19:38:11.832Z,14.83
2018-02-10T19:40:40.755Z,13.30
2018-02-10T19:43:09.588Z,12.43
2018-02-10T19:45:38.514Z,14.50
2018-02-10T19:48:07.374Z,13.10
2018-02-10T19:50:36.246Z,14.50
2018-02-10T19:53:05.106Z,15.20
2018-02-10T19:55:33.990Z,13.03
2018-02-10T19:58:02.846Z,12.17
2018-02-10T20:00:31.723Z,13.60
2018-02-10T20:03:00.579Z,13.93
2018-02-10T20:05:29.474Z,13.13
2018-02-10T20:07:58.344Z,12.30
2018-02-10T20:10:27.197Z,13.00
2018-02-10T20:12:56.066Z,13.30
2018-02-10T20:15:24.940Z,12.27
2018-02-10T20:17:53.818Z,13.10
2018-02-10T20:20:22.676Z,11.53
2018-02-10T20:22:51.565Z,12.07
2018-02-10T20:25:20.434Z,12.50
2018-02-10T20:27:49.310Z,12.20
2018-02-10T20:30:18.167Z,11.13
2018-02-10T20:32:47.093Z,13.40
2018-02-10T20:35:15.942Z,12.77
2018-02-10T20:37:44.840Z,14.47
2018-02-10T20:40:13.701Z,14.70
2018-02-10T20:42:42.559Z,12.57
2018-02-10T20:45:11.431Z,14.40
2018-02-10T20:47:40.288Z,14.20
2018-02-10T20:50:09.214Z,12.73
2018-02-10T20:52:38.066Z,13.43
2018-02-10T20:55:06.939Z,12.77
2018-02-10T20:57:35.798Z,13.00
2018-02-10T21:00:04.675Z,11.57
2018-02-10T21:02:33.541Z,12.83
2018-02-10T21:05:02.415Z,14.43
2018-02-10T21:07:31.274Z,11.93
2018-02-10T21:10:00.143Z,12.97
2018-02-10T21:12:29.004Z,12.00
2018-02-10T21:14:57.912Z,12.30
2018-02-10T21:17:26.790Z,12.03
2018-02-10T21:19:55.690Z,12.33
2018-02-10T21:22:24.542Z,12.57
2018-02-10T21:24:53.395Z,12.83
2018-02-10T21:27:22.265Z,12.73
2018-02-10T21:29:51.121Z,13.47
2018-02-10T21:32:20.056Z,12.20
2018-02-10T21:34:48.894Z,13.13
2018-02-10T21:37:17.771Z,12.60
2018-02-10T21:39:46.630Z,12.47
2018-02-10T21:42:15.502Z,14.17
2018-02-10T21:44:44.358Z,13.20
2018-02-10T21:47:13.251Z,12.30
2018-02-10T21:49:42.113Z,13.10
2018-02-10T21:52:11.041Z,13.30
2018-02-10T21:54:39.894Z,13.77
2018-02-10T21:57:08.974Z,13.70
2018-02-10T21:59:37.837Z,13.77
2018-02-10T22:02:06.704Z,12.47
2018-02-10T22:04:35.596Z,13.57
2018-02-10T22:07:04.446Z,15.20
2018-02-10T22:09:33.324Z,12.80
2018-02-10T22:12:02.189Z,13.23
2018-02-10T22:14:31.062Z,14.47
2018-02-10T22:16:59.923Z,13.37
2018-02-10T22:19:28.866Z,16.37
2018-02-10T22:21:57.722Z,14.33
2018-02-10T22:24:26.600Z,13.33
2018-02-10T22:26:55.491Z,14.07
2018-02-10T22:29:24.363Z,13.57
2018-02-10T22:31:53.230Z,13.83
2018-02-10T22:34:22.117Z,14.27
2018-02-10T22:36:50.983Z,15.03
2018-02-10T22:39:19.843Z,12.87
2018-02-10T22:41:48.831Z,14.10
2018-02-10T22:44:17.689Z,14.57
2018-02-10T22:46:46.566Z,12.37
2018-02-10T22:49:15.428Z,14.00
2018-02-10T22:51:44.302Z,13.33
2018-02-10T22:54:13.166Z,13.30
2018-02-10T22:56:42.040Z,13.03
2018-02-10T22:59:10.950Z,13.83
2018-02-10T23:01:39.802Z,14.97
2018-02-10T23:04:08.661Z,16.03
2018-02-10T23:06:37.535Z,14.17
2018-02-10T23:09:06.399Z,14.50
2018-02-10T23:11:35.290Z,13.13
2018-02-10T23:14:04.149Z,12.93
2018-02-10T23:16:33.010Z,13.77
2018-02-10T23:19:01.916Z,13.77
2018-02-10T23:21:30.780Z,14.27
2018-02-10T23:23:59.651Z,13.67
2018-02-10T23:26:28.514Z,13.73
2018-02-10T23:28:57.390Z,14.00
2018-02-10T23:31:26.256Z,13.30
2018-02-10T23:36:30.334Z,14.10
2018-02-10T23:38:59.224Z,14.43
2018-02-10T23:41:28.082Z,15.50
2018-02-10T23:43:56.989Z,16.67
2018-02-10T23:46:25.853Z,13.70
2018-02-10T23:48:54.707Z,13.50
2018-02-10T23:51:23.596Z,14.97
2018-02-10T23:53:52.464Z,15.87
2018-02-10T23:56:21.338Z,15.60
2018-02-10T23:58:50.209Z,15.33
